sensor_id;sensor_type;location;lat;lon;timestamp;P1;durP1;ratioP1;P2;durP2;ratioP2
47381;SDS011;33128;51.580;5.170;2023-03-04T00:02:22;599.80;;;552.78;;
47381;SDS011;33128;51.580;5.170;2023-03-04T00:04:48;9.95;;;9.10;;
47381;SDS011;33128;51.580;5.170;2023-03-04T00:07:14;9.23;;;8.82;;
47381;SDS011;33128;51.580;5.170;2023-03-04T00:09:44;361.63;;;331.75;;
47381;SDS011;33128;51.580;5.170;2023-03-04T00:12:10;722.83;;;659.70;;
47381;SDS011;33128;51.580;5.170;2023-03-04T00:14:36;699.13;;;637.85;;
47381;SDS011;33128;51.580;5.170;2023-03-04T00:17:05;703.53;;;641.83;;
47381;SDS011;33128;51.580;5.170;2023-03-04T00:19:31;693.63;;;631.42;;
47381;SDS011;33128;51.580;5.170;2023-03-04T00:21:57;510.60;;;455.65;;
47381;SDS011;33128;51.580;5.170;2023-03-04T00:24:22;696.50;;;635.38;;
47381;SDS011;33128;51.580;5.170;2023-03-04T00:26:49;632.40;;;575.20;;
47381;SDS011;33128;51.580;5.170;2023-03-04T00:29:15;661.72;;;603.05;;
47381;SDS011;33128;51.580;5.170;2023-03-04T00:31:40;616.05;;;559.53;;
47381;SDS011;33128;51.580;5.170;2023-03-04T00:34:06;591.03;;;535.15;;
47381;SDS011;33128;51.580;5.170;2023-03-04T00:36:31;599.10;;;543.53;;
47381;SDS011;33128;51.580;5.170;2023-03-04T00:38:57;543.33;;;490.90;;
47381;SDS011;33128;51.580;5.170;2023-03-04T00:41:22;52.63;;;43.80;;
47381;SDS011;33128;51.580;5.170;2023-03-04T00:43:48;565.92;;;513.75;;
47381;SDS011;33128;51.580;5.170;2023-03-04T00:46:14;664.72;;;606.40;;
47381;SDS011;33128;51.580;5.170;2023-03-04T00:48:39;580.17;;;525.83;;
47381;SDS011;33128;51.580;5.170;2023-03-04T00:51:05;607.92;;;552.05;;
47381;SDS011;33128;51.580;5.170;2023-03-04T00:53:31;600.53;;;544.35;;
47381;SDS011;33128;51.580;5.170;2023-03-04T00:55:56;607.03;;;551.17;;
47381;SDS011;33128;51.580;5.170;2023-03-04T00:58:22;581.90;;;527.20;;
47381;SDS011;33128;51.580;5.170;2023-03-04T01:00:48;511.10;;;459.45;;
47381;SDS011;33128;51.580;5.170;2023-03-04T01:03:13;607.53;;;550.50;;
47381;SDS011;33128;51.580;5.170;2023-03-04T01:05:39;611.10;;;554.63;;
47381;SDS011;33128;51.580;5.170;2023-03-04T01:08:04;476.50;;;419.55;;
47381;SDS011;33128;51.580;5.170;2023-03-04T01:10:30;571.97;;;517.33;;
47381;SDS011;33128;51.580;5.170;2023-03-04T01:12:56;750.05;;;686.95;;
47381;SDS011;33128;51.580;5.170;2023-03-04T01:15:21;656.60;;;597.72;;
47381;SDS011;33128;51.580;5.170;2023-03-04T01:17:47;646.35;;;587.90;;
47381;SDS011;33128;51.580;5.170;2023-03-04T01:20:13;662.28;;;603.45;;
47381;SDS011;33128;51.580;5.170;2023-03-04T01:22:39;650.20;;;591.45;;
47381;SDS011;33128;51.580;5.170;2023-03-04T01:25:05;670.03;;;610.15;;
47381;SDS011;33128;51.580;5.170;2023-03-04T01:27:31;605.42;;;548.10;;
47381;SDS011;33128;51.580;5.170;2023-03-04T01:29:57;652.65;;;593.75;;
47381;SDS011;33128;51.580;5.170;2023-03-04T01:32:23;626.08;;;568.40;;
47381;SDS011;33128;51.580;5.170;2023-03-04T01:34:48;657.28;;;598.22;;
47381;SDS011;33128;51.580;5.170;2023-03-04T01:37:14;639.22;;;581.70;;
47381;SDS011;33128;51.580;5.170;2023-03-04T01:39:40;622.40;;;565.60;;
47381;SDS011;33128;51.580;5.170;2023-03-04T01:42:06;646.28;;;588.22;;
47381;SDS011;33128;51.580;5.170;2023-03-04T01:44:43;658.40;;;599.45;;
47381;SDS011;33128;51.580;5.170;2023-03-04T01:47:09;654.65;;;596.22;;
47381;SDS011;33128;51.580;5.170;2023-03-04T01:49:36;626.72;;;568.85;;
47381;SDS011;33128;51.580;5.170;2023-03-04T01:52:01;626.28;;;568.67;;
47381;SDS011;33128;51.580;5.170;2023-03-04T01:54:27;504.05;;;449.35;;
47381;SDS011;33128;51.580;5.170;2023-03-04T01:56:59;700.97;;;639.13;;
47381;SDS011;33128;51.580;5.170;2023-03-04T01:59:25;672.85;;;611.83;;
47381;SDS011;33128;51.580;5.170;2023-03-04T02:01:58;694.42;;;633.28;;
47381;SDS011;33128;51.580;5.170;2023-03-04T02:04:25;690.35;;;629.15;;
47381;SDS011;33128;51.580;5.170;2023-03-04T02:06:52;702.25;;;640.70;;
47381;SDS011;33128;51.580;5.170;2023-03-04T02:09:19;714.38;;;651.85;;
47381;SDS011;33128;51.580;5.170;2023-03-04T02:11:45;704.58;;;642.25;;
47381;SDS011;33128;51.580;5.170;2023-03-04T02:14:16;727.30;;;663.55;;
47381;SDS011;33128;51.580;5.170;2023-03-04T02:16:43;696.53;;;635.17;;
47381;SDS011;33128;51.580;5.170;2023-03-04T02:19:18;702.38;;;640.70;;
47381;SDS011;33128;51.580;5.170;2023-03-04T02:21:55;688.95;;;627.92;;
47381;SDS011;33128;51.580;5.170;2023-03-04T02:27:05;687.97;;;627.47;;
47381;SDS011;33128;51.580;5.170;2023-03-04T02:29:31;512.25;;;456.85;;
47381;SDS011;33128;51.580;5.170;2023-03-04T02:31:57;693.63;;;632.95;;
47381;SDS011;33128;51.580;5.170;2023-03-04T02:34:24;719.17;;;656.65;;
47381;SDS011;33128;51.580;5.170;2023-03-04T02:37:00;749.95;;;685.40;;
47381;SDS011;33128;51.580;5.170;2023-03-04T02:39:28;711.65;;;648.83;;
47381;SDS011;33128;51.580;5.170;2023-03-04T02:41:57;704.33;;;643.22;;
47381;SDS011;33128;51.580;5.170;2023-03-04T02:44:27;717.50;;;654.72;;
47381;SDS011;33128;51.580;5.170;2023-03-04T02:46:55;645.90;;;585.97;;
47381;SDS011;33128;51.580;5.170;2023-03-04T02:49:22;700.22;;;639.00;;
47381;SDS011;33128;51.580;5.170;2023-03-04T02:51:57;695.47;;;634.47;;
47381;SDS011;33128;51.580;5.170;2023-03-04T02:54:25;709.83;;;647.72;;
47381;SDS011;33128;51.580;5.170;2023-03-04T02:56:52;711.10;;;649.17;;
47381;SDS011;33128;51.580;5.170;2023-03-04T02:59:19;699.30;;;638.08;;
47381;SDS011;33128;51.580;5.170;2023-03-04T03:01:47;554.65;;;497.73;;
47381;SDS011;33128;51.580;5.170;2023-03-04T03:04:13;707.95;;;646.42;;
47381;SDS011;33128;51.580;5.170;2023-03-04T03:06:39;708.70;;;647.15;;
47381;SDS011;33128;51.580;5.170;2023-03-04T03:09:05;748.28;;;684.03;;
47381;SDS011;33128;51.580;5.170;2023-03-04T03:11:31;777.78;;;711.47;;
47381;SDS011;33128;51.580;5.170;2023-03-04T03:13:57;733.72;;;671.33;;
47381;SDS011;33128;51.580;5.170;2023-03-04T03:16:23;756.80;;;691.80;;
47381;SDS011;33128;51.580;5.170;2023-03-04T03:18:49;789.47;;;722.15;;
47381;SDS011;33128;51.580;5.170;2023-03-04T03:21:21;762.38;;;696.97;;
47381;SDS011;33128;51.580;5.170;2023-03-04T03:23:47;784.75;;;717.78;;
47381;SDS011;33128;51.580;5.170;2023-03-04T03:26:13;568.67;;;510.98;;
47381;SDS011;33128;51.580;5.170;2023-03-04T03:28:38;805.00;;;735.97;;
47381;SDS011;33128;51.580;5.170;2023-03-04T03:31:04;710.63;;;648.92;;
47381;SDS011;33128;51.580;5.170;2023-03-04T03:33:30;734.42;;;670.80;;
47381;SDS011;33128;51.580;5.170;2023-03-04T03:35:55;771.80;;;705.75;;
47381;SDS011;33128;51.580;5.170;2023-03-04T03:38:21;702.20;;;639.72;;
47381;SDS011;33128;51.580;5.170;2023-03-04T03:40:47;745.92;;;681.92;;
47381;SDS011;33128;51.580;5.170;2023-03-04T03:43:12;719.97;;;657.55;;
47381;SDS011;33128;51.580;5.170;2023-03-04T03:45:38;751.00;;;685.78;;
47381;SDS011;33128;51.580;5.170;2023-03-04T03:48:03;703.75;;;642.95;;
47381;SDS011;33128;51.580;5.170;2023-03-04T03:50:29;708.92;;;647.80;;
47381;SDS011;33128;51.580;5.170;2023-03-04T03:52:55;698.00;;;637.28;;
47381;SDS011;33128;51.580;5.170;2023-03-04T03:55:21;711.08;;;649.58;;
47381;SDS011;33128;51.580;5.170;2023-03-04T03:57:47;824.50;;;753.80;;
47381;SDS011;33128;51.580;5.170;2023-03-04T04:00:13;755.22;;;690.70;;
47381;SDS011;33128;51.580;5.170;2023-03-04T04:02:39;805.53;;;737.03;;
47381;SDS011;33128;51.580;5.170;2023-03-04T04:05:05;738.90;;;675.10;;
47381;SDS011;33128;51.580;5.170;2023-03-04T04:07:32;767.85;;;701.30;;
47381;SDS011;33128;51.580;5.170;2023-03-04T04:09:58;734.20;;;670.67;;
47381;SDS011;33128;51.580;5.170;2023-03-04T04:12:23;676.78;;;613.85;;
47381;SDS011;33128;51.580;5.170;2023-03-04T04:14:49;727.88;;;665.08;;
47381;SDS011;33128;51.580;5.170;2023-03-04T04:17:15;605.50;;;546.33;;
47381;SDS011;33128;51.580;5.170;2023-03-04T04:19:40;804.63;;;735.10;;
47381;SDS011;33128;51.580;5.170;2023-03-04T04:22:07;723.92;;;661.15;;
47381;SDS011;33128;51.580;5.170;2023-03-04T04:24:38;711.67;;;649.25;;
47381;SDS011;33128;51.580;5.170;2023-03-04T04:27:03;769.65;;;703.90;;
47381;SDS011;33128;51.580;5.170;2023-03-04T04:29:29;736.70;;;673.70;;
47381;SDS011;33128;51.580;5.170;2023-03-04T04:31:55;759.67;;;694.38;;
47381;SDS011;33128;51.580;5.170;2023-03-04T04:34:20;800.80;;;733.13;;
47381;SDS011;33128;51.580;5.170;2023-03-04T04:36:46;733.92;;;670.85;;
47381;SDS011;33128;51.580;5.170;2023-03-04T04:39:12;764.75;;;699.25;;
47381;SDS011;33128;51.580;5.170;2023-03-04T04:41:38;749.58;;;685.33;;
47381;SDS011;33128;51.580;5.170;2023-03-04T04:44:06;751.83;;;687.40;;
47381;SDS011;33128;51.580;5.170;2023-03-04T04:46:32;745.30;;;681.13;;
47381;SDS011;33128;51.580;5.170;2023-03-04T04:48:58;758.35;;;693.10;;
47381;SDS011;33128;51.580;5.170;2023-03-04T04:51:23;735.53;;;672.38;;
47381;SDS011;33128;51.580;5.170;2023-03-04T04:53:49;783.10;;;716.53;;
47381;SDS011;33128;51.580;5.170;2023-03-04T04:56:16;796.45;;;729.15;;
47381;SDS011;33128;51.580;5.170;2023-03-04T04:58:43;696.63;;;632.60;;
47381;SDS011;33128;51.580;5.170;2023-03-04T05:01:11;782.40;;;716.13;;
47381;SDS011;33128;51.580;5.170;2023-03-04T05:03:38;601.33;;;541.83;;
47381;SDS011;33128;51.580;5.170;2023-03-04T05:06:04;815.13;;;747.08;;
47381;SDS011;33128;51.580;5.170;2023-03-04T05:08:34;761.03;;;696.30;;
47381;SDS011;33128;51.580;5.170;2023-03-04T05:11:00;726.15;;;662.47;;
47381;SDS011;33128;51.580;5.170;2023-03-04T05:13:26;776.75;;;710.65;;
47381;SDS011;33128;51.580;5.170;2023-03-04T05:15:53;798.58;;;730.95;;
47381;SDS011;33128;51.580;5.170;2023-03-04T05:18:20;789.55;;;722.58;;
47381;SDS011;33128;51.580;5.170;2023-03-04T05:20:53;829.38;;;759.95;;
47381;SDS011;33128;51.580;5.170;2023-03-04T05:23:20;745.88;;;679.70;;
47381;SDS011;33128;51.580;5.170;2023-03-04T05:25:46;787.50;;;720.53;;
47381;SDS011;33128;51.580;5.170;2023-03-04T05:28:12;759.60;;;694.95;;
47381;SDS011;33128;51.580;5.170;2023-03-04T05:30:39;810.75;;;742.33;;
47381;SDS011;33128;51.580;5.170;2023-03-04T05:33:05;790.05;;;723.35;;
47381;SDS011;33128;51.580;5.170;2023-03-04T05:35:33;763.25;;;698.53;;
47381;SDS011;33128;51.580;5.170;2023-03-04T05:37:59;737.47;;;674.63;;
47381;SDS011;33128;51.580;5.170;2023-03-04T05:40:25;764.67;;;699.45;;
47381;SDS011;33128;51.580;5.170;2023-03-04T05:42:51;813.00;;;744.63;;
47381;SDS011;33128;51.580;5.170;2023-03-04T05:45:17;771.75;;;706.45;;
47381;SDS011;33128;51.580;5.170;2023-03-04T05:47:42;784.92;;;718.58;;
47381;SDS011;33128;51.580;5.170;2023-03-04T05:50:11;671.00;;;609.60;;
47381;SDS011;33128;51.580;5.170;2023-03-04T05:52:36;789.80;;;723.15;;
47381;SDS011;33128;51.580;5.170;2023-03-04T05:55:02;830.90;;;761.63;;
47381;SDS011;33128;51.580;5.170;2023-03-04T05:57:28;640.92;;;579.85;;
47381;SDS011;33128;51.580;5.170;2023-03-04T05:59:53;806.55;;;738.55;;
47381;SDS011;33128;51.580;5.170;2023-03-04T06:02:19;817.17;;;748.60;;
47381;SDS011;33128;51.580;5.170;2023-03-04T06:04:44;828.38;;;759.05;;
47381;SDS011;33128;51.580;5.170;2023-03-04T06:07:13;796.03;;;729.13;;
47381;SDS011;33128;51.580;5.170;2023-03-04T06:09:38;825.70;;;756.63;;
47381;SDS011;33128;51.580;5.170;2023-03-04T06:12:04;798.78;;;731.67;;
47381;SDS011;33128;51.580;5.170;2023-03-04T06:14:30;810.75;;;742.70;;
47381;SDS011;33128;51.580;5.170;2023-03-04T06:16:55;777.25;;;711.45;;
47381;SDS011;33128;51.580;5.170;2023-03-04T06:19:21;801.35;;;733.88;;
47381;SDS011;33128;51.580;5.170;2023-03-04T06:21:46;827.97;;;758.88;;
47381;SDS011;33128;51.580;5.170;2023-03-04T06:24:12;690.08;;;627.20;;
47381;SDS011;33128;51.580;5.170;2023-03-04T06:26:38;852.30;;;781.78;;
47381;SDS011;33128;51.580;5.170;2023-03-04T06:29:04;809.88;;;741.63;;
47381;SDS011;33128;51.580;5.170;2023-03-04T06:31:30;824.15;;;755.03;;
47381;SDS011;33128;51.580;5.170;2023-03-04T06:33:58;789.33;;;722.92;;
47381;SDS011;33128;51.580;5.170;2023-03-04T06:36:24;797.55;;;730.30;;
47381;SDS011;33128;51.580;5.170;2023-03-04T06:38:49;773.10;;;707.47;;
47381;SDS011;33128;51.580;5.170;2023-03-04T06:41:15;782.78;;;716.30;;
47381;SDS011;33128;51.580;5.170;2023-03-04T06:43:41;790.22;;;723.25;;
47381;SDS011;33128;51.580;5.170;2023-03-04T06:46:07;815.25;;;747.30;;
47381;SDS011;33128;51.580;5.170;2023-03-04T06:48:33;803.83;;;736.35;;
47381;SDS011;33128;51.580;5.170;2023-03-04T06:51:03;721.05;;;657.22;;
47381;SDS011;33128;51.580;5.170;2023-03-04T06:53:31;763.50;;;698.60;;
47381;SDS011;33128;51.580;5.170;2023-03-04T06:55:56;789.22;;;722.88;;
47381;SDS011;33128;51.580;5.170;2023-03-04T06:58:22;775.92;;;709.00;;
47381;SDS011;33128;51.580;5.170;2023-03-04T07:00:50;785.33;;;718.80;;
47381;SDS011;33128;51.580;5.170;2023-03-04T07:03:16;785.35;;;718.13;;
47381;SDS011;33128;51.580;5.170;2023-03-04T07:05:42;788.22;;;720.97;;
47381;SDS011;33128;51.580;5.170;2023-03-04T07:08:07;790.33;;;723.72;;
47381;SDS011;33128;51.580;5.170;2023-03-04T07:10:33;717.17;;;652.78;;
47381;SDS011;33128;51.580;5.170;2023-03-04T07:12:59;802.50;;;735.03;;
47381;SDS011;33128;51.580;5.170;2023-03-04T07:15:25;788.00;;;720.97;;
47381;SDS011;33128;51.580;5.170;2023-03-04T07:17:50;814.45;;;746.15;;
47381;SDS011;33128;51.580;5.170;2023-03-04T07:20:16;790.05;;;723.30;;
47381;SDS011;33128;51.580;5.170;2023-03-04T07:22:42;800.92;;;733.38;;
47381;SDS011;33128;51.580;5.170;2023-03-04T07:25:08;790.13;;;723.22;;
47381;SDS011;33128;51.580;5.170;2023-03-04T07:27:34;155.98;;;141.65;;
47381;SDS011;33128;51.580;5.170;2023-03-04T07:30:00;6.55;;;6.25;;
47381;SDS011;33128;51.580;5.170;2023-03-04T07:32:25;7.85;;;7.30;;
47381;SDS011;33128;51.580;5.170;2023-03-04T07:34:51;7.97;;;7.68;;
47381;SDS011;33128;51.580;5.170;2023-03-04T07:37:16;7.30;;;6.90;;
47381;SDS011;33128;51.580;5.170;2023-03-04T07:39:42;7.65;;;7.07;;
47381;SDS011;33128;51.580;5.170;2023-03-04T07:42:07;7.78;;;7.28;;
47381;SDS011;33128;51.580;5.170;2023-03-04T07:44:33;7.22;;;6.88;;
47381;SDS011;33128;51.580;5.170;2023-03-04T07:46:59;8.90;;;7.15;;
47381;SDS011;33128;51.580;5.170;2023-03-04T07:49:24;7.30;;;6.90;;
47381;SDS011;33128;51.580;5.170;2023-03-04T07:51:50;11.57;;;7.03;;
47381;SDS011;33128;51.580;5.170;2023-03-04T07:54:15;8.30;;;7.70;;
47381;SDS011;33128;51.580;5.170;2023-03-04T07:56:44;6.82;;;6.47;;
47381;SDS011;33128;51.580;5.170;2023-03-04T07:59:09;7.60;;;7.10;;
47381;SDS011;33128;51.580;5.170;2023-03-04T08:01:36;7.13;;;6.82;;
47381;SDS011;33128;51.580;5.170;2023-03-04T08:04:02;7.53;;;7.22;;
47381;SDS011;33128;51.580;5.170;2023-03-04T08:06:32;7.93;;;7.60;;
47381;SDS011;33128;51.580;5.170;2023-03-04T08:09:00;7.15;;;6.75;;
47381;SDS011;33128;51.580;5.170;2023-03-04T08:11:28;7.00;;;6.70;;
47381;SDS011;33128;51.580;5.170;2023-03-04T08:13:55;7.45;;;6.85;;
47381;SDS011;33128;51.580;5.170;2023-03-04T08:16:21;7.65;;;6.90;;
47381;SDS011;33128;51.580;5.170;2023-03-04T08:18:49;7.63;;;7.20;;
47381;SDS011;33128;51.580;5.170;2023-03-04T08:21:17;8.35;;;7.90;;
47381;SDS011;33128;51.580;5.170;2023-03-04T08:23:44;7.97;;;7.50;;
47381;SDS011;33128;51.580;5.170;2023-03-04T08:28:51;7.40;;;7.00;;
47381;SDS011;33128;51.580;5.170;2023-03-04T08:31:17;8.00;;;7.32;;
47381;SDS011;33128;51.580;5.170;2023-03-04T08:33:44;7.90;;;7.60;;
47381;SDS011;33128;51.580;5.170;2023-03-04T08:36:10;7.70;;;7.30;;
47381;SDS011;33128;51.580;5.170;2023-03-04T08:38:36;7.00;;;6.80;;
47381;SDS011;33128;51.580;5.170;2023-03-04T08:41:02;7.15;;;6.85;;
47381;SDS011;33128;51.580;5.170;2023-03-04T08:43:31;8.20;;;7.72;;
47381;SDS011;33128;51.580;5.170;2023-03-04T08:45:58;7.10;;;6.63;;
47381;SDS011;33128;51.580;5.170;2023-03-04T08:48:28;7.57;;;7.28;;
47381;SDS011;33128;51.580;5.170;2023-03-04T08:50:54;7.75;;;7.45;;
47381;SDS011;33128;51.580;5.170;2023-03-04T08:53:20;7.30;;;7.00;;
47381;SDS011;33128;51.580;5.170;2023-03-04T08:55:49;8.80;;;8.25;;
47381;SDS011;33128;51.580;5.170;2023-03-04T08:58:16;7.20;;;6.90;;
47381;SDS011;33128;51.580;5.170;2023-03-04T09:00:44;7.93;;;7.40;;
47381;SDS011;33128;51.580;5.170;2023-03-04T09:03:12;8.77;;;8.18;;
47381;SDS011;33128;51.580;5.170;2023-03-04T09:05:38;8.30;;;7.95;;
47381;SDS011;33128;51.580;5.170;2023-03-04T09:08:05;8.18;;;7.70;;
47381;SDS011;33128;51.580;5.170;2023-03-04T09:10:31;8.13;;;7.70;;
47381;SDS011;33128;51.580;5.170;2023-03-04T09:12:56;8.05;;;7.60;;
47381;SDS011;33128;51.580;5.170;2023-03-04T09:15:25;8.35;;;7.75;;
47381;SDS011;33128;51.580;5.170;2023-03-04T09:17:51;8.10;;;7.80;;
47381;SDS011;33128;51.580;5.170;2023-03-04T09:20:17;8.02;;;7.70;;
47381;SDS011;33128;51.580;5.170;2023-03-04T09:22:45;7.95;;;7.65;;
47381;SDS011;33128;51.580;5.170;2023-03-04T09:25:13;7.72;;;7.30;;
47381;SDS011;33128;51.580;5.170;2023-03-04T09:27:39;7.78;;;7.10;;
47381;SDS011;33128;51.580;5.170;2023-03-04T09:30:08;7.90;;;7.60;;
47381;SDS011;33128;51.580;5.170;2023-03-04T09:32:34;7.47;;;7.18;;
47381;SDS011;33128;51.580;5.170;2023-03-04T09:35:00;8.30;;;7.90;;
47381;SDS011;33128;51.580;5.170;2023-03-04T09:37:26;8.00;;;7.60;;
47381;SDS011;33128;51.580;5.170;2023-03-04T09:39:51;8.27;;;7.88;;
47381;SDS011;33128;51.580;5.170;2023-03-04T09:42:27;8.52;;;8.13;;
47381;SDS011;33128;51.580;5.170;2023-03-04T09:44:58;8.40;;;7.93;;
47381;SDS011;33128;51.580;5.170;2023-03-04T09:47:25;8.20;;;7.85;;
47381;SDS011;33128;51.580;5.170;2023-03-04T09:49:58;8.07;;;7.78;;
47381;SDS011;33128;51.580;5.170;2023-03-04T09:52:34;7.50;;;7.20;;
47381;SDS011;33128;51.580;5.170;2023-03-04T09:55:34;7.47;;;7.07;;
47381;SDS011;33128;51.580;5.170;2023-03-04T09:58:15;8.45;;;8.05;;
47381;SDS011;33128;51.580;5.170;2023-03-04T10:01:22;8.52;;;7.82;;
47381;SDS011;33128;51.580;5.170;2023-03-04T10:06:39;7.63;;;7.28;;
47381;SDS011;33128;51.580;5.170;2023-03-04T10:09:10;8.20;;;7.53;;
47381;SDS011;33128;51.580;5.170;2023-03-04T10:11:41;8.18;;;7.70;;
47381;SDS011;33128;51.580;5.170;2023-03-04T10:16:51;8.18;;;7.68;;
47381;SDS011;33128;51.580;5.170;2023-03-04T10:19:40;8.88;;;8.38;;
47381;SDS011;33128;51.580;5.170;2023-03-04T10:22:19;8.70;;;7.93;;
47381;SDS011;33128;51.580;5.170;2023-03-04T10:24:47;8.13;;;7.78;;
47381;SDS011;33128;51.580;5.170;2023-03-04T10:27:14;8.40;;;8.00;;
47381;SDS011;33128;51.580;5.170;2023-03-04T10:29:43;9.30;;;8.60;;
47381;SDS011;33128;51.580;5.170;2023-03-04T10:32:19;9.55;;;8.93;;
47381;SDS011;33128;51.580;5.170;2023-03-04T10:34:44;9.25;;;8.75;;
47381;SDS011;33128;51.580;5.170;2023-03-04T10:37:11;8.18;;;7.78;;
47381;SDS011;33128;51.580;5.170;2023-03-04T10:39:41;8.25;;;7.78;;
47381;SDS011;33128;51.580;5.170;2023-03-04T10:44:54;8.77;;;8.07;;
47381;SDS011;33128;51.580;5.170;2023-03-04T10:47:23;23.75;;;14.13;;
47381;SDS011;33128;51.580;5.170;2023-03-04T10:49:51;15.85;;;12.02;;
47381;SDS011;33128;51.580;5.170;2023-03-04T10:52:28;10.43;;;9.48;;
47381;SDS011;33128;51.580;5.170;2023-03-04T10:57:39;11.95;;;10.38;;
47381;SDS011;33128;51.580;5.170;2023-03-04T11:02:42;11.20;;;10.40;;
47381;SDS011;33128;51.580;5.170;2023-03-04T11:07:40;10.63;;;9.57;;
47381;SDS011;33128;51.580;5.170;2023-03-04T11:10:18;13.93;;;10.75;;
47381;SDS011;33128;51.580;5.170;2023-03-04T11:12:51;10.43;;;9.52;;
47381;SDS011;33128;51.580;5.170;2023-03-04T11:15:23;10.57;;;9.88;;
47381;SDS011;33128;51.580;5.170;2023-03-04T11:18:02;10.65;;;9.90;;
47381;SDS011;33128;51.580;5.170;2023-03-04T11:20:38;10.38;;;9.77;;
47381;SDS011;33128;51.580;5.170;2023-03-04T11:23:15;10.30;;;9.77;;
47381;SDS011;33128;51.580;5.170;2023-03-04T11:25:46;11.50;;;10.38;;
47381;SDS011;33128;51.580;5.170;2023-03-04T11:28:51;11.43;;;10.10;;
47381;SDS011;33128;51.580;5.170;2023-03-04T11:31:27;9.93;;;9.07;;
47381;SDS011;33128;51.580;5.170;2023-03-04T11:36:55;9.13;;;8.50;;
47381;SDS011;33128;51.580;5.170;2023-03-04T11:44:54;10.05;;;9.13;;
47381;SDS011;33128;51.580;5.170;2023-03-04T11:47:32;9.80;;;9.00;;
47381;SDS011;33128;51.580;5.170;2023-03-04T11:52:47;10.75;;;9.73;;
47381;SDS011;33128;51.580;5.170;2023-03-04T12:15:49;13.60;;;8.55;;
47381;SDS011;33128;51.580;5.170;2023-03-04T12:18:38;9.55;;;8.82;;
47381;SDS011;33128;51.580;5.170;2023-03-04T12:27:19;8.80;;;8.20;;
47381;SDS011;33128;51.580;5.170;2023-03-04T12:37:49;8.77;;;8.15;;
47381;SDS011;33128;51.580;5.170;2023-03-04T12:40:29;13.95;;;7.72;;
47381;SDS011;33128;51.580;5.170;2023-03-04T12:46:10;10.07;;;8.55;;
47381;SDS011;33128;51.580;5.170;2023-03-04T12:54:31;15.07;;;9.32;;
47381;SDS011;33128;51.580;5.170;2023-03-04T12:59:50;20.92;;;11.10;;
47381;SDS011;33128;51.580;5.170;2023-03-04T13:02:31;10.27;;;9.25;;
47381;SDS011;33128;51.580;5.170;2023-03-04T13:10:50;9.05;;;8.35;;
47381;SDS011;33128;51.580;5.170;2023-03-04T13:16:00;8.35;;;7.85;;
47381;SDS011;33128;51.580;5.170;2023-03-04T13:21:06;9.23;;;8.55;;
47381;SDS011;33128;51.580;5.170;2023-03-04T13:23:47;11.88;;;8.15;;
47381;SDS011;33128;51.580;5.170;2023-03-04T13:28:45;8.82;;;7.97;;
47381;SDS011;33128;51.580;5.170;2023-03-04T13:31:22;8.95;;;8.00;;
47381;SDS011;33128;51.580;5.170;2023-03-04T13:33:52;8.52;;;8.02;;
47381;SDS011;33128;51.580;5.170;2023-03-04T13:38:56;8.25;;;7.68;;
47381;SDS011;33128;51.580;5.170;2023-03-04T13:41:30;9.10;;;8.40;;
47381;SDS011;33128;51.580;5.170;2023-03-04T13:44:55;8.93;;;8.48;;
47381;SDS011;33128;51.580;5.170;2023-03-04T13:47:21;8.50;;;8.00;;
47381;SDS011;33128;51.580;5.170;2023-03-04T13:50:40;9.07;;;8.38;;
47381;SDS011;33128;51.580;5.170;2023-03-04T13:52:45;8.68;;;8.32;;
47381;SDS011;33128;51.580;5.170;2023-03-04T13:55:32;8.85;;;8.40;;
47381;SDS011;33128;51.580;5.170;2023-03-04T13:58:22;9.30;;;8.75;;
47381;SDS011;33128;51.580;5.170;2023-03-04T14:00:54;8.20;;;7.78;;
47381;SDS011;33128;51.580;5.170;2023-03-04T14:03:21;9.52;;;8.60;;
47381;SDS011;33128;51.580;5.170;2023-03-04T14:06:07;8.93;;;8.32;;
47381;SDS011;33128;51.580;5.170;2023-03-04T14:08:44;9.68;;;8.85;;
47381;SDS011;33128;51.580;5.170;2023-03-04T14:11:11;8.55;;;8.00;;
47381;SDS011;33128;51.580;5.170;2023-03-04T14:13:39;10.00;;;9.30;;
47381;SDS011;33128;51.580;5.170;2023-03-04T14:16:06;8.70;;;8.30;;
47381;SDS011;33128;51.580;5.170;2023-03-04T14:18:32;9.38;;;8.88;;
47381;SDS011;33128;51.580;5.170;2023-03-04T14:20:59;9.40;;;8.80;;
47381;SDS011;33128;51.580;5.170;2023-03-04T14:23:27;9.90;;;8.98;;
47381;SDS011;33128;51.580;5.170;2023-03-04T14:28:32;9.70;;;9.18;;
47381;SDS011;33128;51.580;5.170;2023-03-04T14:31:05;8.77;;;8.38;;
47381;SDS011;33128;51.580;5.170;2023-03-04T14:36:16;8.98;;;8.48;;
47381;SDS011;33128;51.580;5.170;2023-03-04T14:38:47;9.23;;;8.82;;
47381;SDS011;33128;51.580;5.170;2023-03-04T14:41:20;9.25;;;8.75;;
47381;SDS011;33128;51.580;5.170;2023-03-04T14:43:58;8.95;;;8.40;;
47381;SDS011;33128;51.580;5.170;2023-03-04T14:46:42;8.73;;;8.23;;
47381;SDS011;33128;51.580;5.170;2023-03-04T14:49:12;8.98;;;8.30;;
47381;SDS011;33128;51.580;5.170;2023-03-04T14:51:44;8.60;;;8.00;;
47381;SDS011;33128;51.580;5.170;2023-03-04T14:54:32;9.27;;;8.82;;
47381;SDS011;33128;51.580;5.170;2023-03-04T14:56:58;8.77;;;8.32;;
47381;SDS011;33128;51.580;5.170;2023-03-04T15:02:18;9.73;;;9.32;;
47381;SDS011;33128;51.580;5.170;2023-03-04T15:04:47;9.10;;;8.70;;
47381;SDS011;33128;51.580;5.170;2023-03-04T15:07:20;8.77;;;8.48;;
47381;SDS011;33128;51.580;5.170;2023-03-04T15:09:52;8.85;;;8.35;;
47381;SDS011;33128;51.580;5.170;2023-03-04T15:12:23;8.48;;;7.97;;
47381;SDS011;33128;51.580;5.170;2023-03-04T15:14:53;9.05;;;8.40;;
47381;SDS011;33128;51.580;5.170;2023-03-04T15:22:33;8.35;;;8.05;;
47381;SDS011;33128;51.580;5.170;2023-03-04T15:25:00;8.73;;;8.23;;
47381;SDS011;33128;51.580;5.170;2023-03-04T15:27:27;8.68;;;8.10;;
47381;SDS011;33128;51.580;5.170;2023-03-04T15:29:54;8.50;;;8.10;;
47381;SDS011;33128;51.580;5.170;2023-03-04T15:32:26;9.70;;;8.88;;
47381;SDS011;33128;51.580;5.170;2023-03-04T15:34:53;8.85;;;8.35;;
47381;SDS011;33128;51.580;5.170;2023-03-04T15:37:25;8.27;;;7.88;;
47381;SDS011;33128;51.580;5.170;2023-03-04T15:39:54;8.85;;;8.10;;
47381;SDS011;33128;51.580;5.170;2023-03-04T15:42:22;9.10;;;8.50;;
47381;SDS011;33128;51.580;5.170;2023-03-04T15:44:48;8.43;;;8.02;;
47381;SDS011;33128;51.580;5.170;2023-03-04T15:47:14;9.00;;;8.40;;
47381;SDS011;33128;51.580;5.170;2023-03-04T15:49:40;8.43;;;7.97;;
47381;SDS011;33128;51.580;5.170;2023-03-04T15:52:10;8.52;;;8.23;;
47381;SDS011;33128;51.580;5.170;2023-03-04T15:54:39;8.65;;;8.10;;
47381;SDS011;33128;51.580;5.170;2023-03-04T15:57:06;8.25;;;7.75;;
47381;SDS011;33128;51.580;5.170;2023-03-04T15:59:45;7.45;;;7.05;;
47381;SDS011;33128;51.580;5.170;2023-03-04T16:02:14;8.52;;;8.05;;
47381;SDS011;33128;51.580;5.170;2023-03-04T16:04:45;8.30;;;7.90;;
47381;SDS011;33128;51.580;5.170;2023-03-04T16:07:14;8.10;;;7.70;;
47381;SDS011;33128;51.580;5.170;2023-03-04T16:09:44;8.40;;;7.80;;
47381;SDS011;33128;51.580;5.170;2023-03-04T16:12:11;8.23;;;7.82;;
47381;SDS011;33128;51.580;5.170;2023-03-04T16:14:37;7.90;;;7.50;;
47381;SDS011;33128;51.580;5.170;2023-03-04T16:17:03;7.63;;;7.22;;
47381;SDS011;33128;51.580;5.170;2023-03-04T16:19:29;7.07;;;6.68;;